createdAt,value
2022-12-03T00:00:15.822Z,42.32
2022-12-03T00:02:42.451Z,42.33
2022-12-03T00:05:09.230Z,42.34
2022-12-03T00:07:35.724Z,43.61
2022-12-03T00:10:02.206Z,43.49
2022-12-03T00:12:28.609Z,41.95
2022-12-03T00:14:55.413Z,40.87
2022-12-03T00:17:22.002Z,40.14
2022-12-03T00:19:48.484Z,40.06
2022-12-03T00:22:14.925Z,39.65
2022-12-03T00:24:41.358Z,39.41
2022-12-03T00:27:07.876Z,39.62
2022-12-03T00:29:34.263Z,39.58
2022-12-03T00:32:00.710Z,39.15
2022-12-03T00:34:27.166Z,38.96
2022-12-03T00:36:53.594Z,38.98
2022-12-03T00:39:20.020Z,38.87
2022-12-03T00:41:46.471Z,38.67
2022-12-03T00:44:12.964Z,38.08
2022-12-03T00:46:39.607Z,37.95
2022-12-03T00:49:06.194Z,38.07
2022-12-03T00:51:32.638Z,38.02
2022-12-03T00:53:59.062Z,37.68
2022-12-03T00:56:25.453Z,37.37
2022-12-03T00:58:51.866Z,37.55
2022-12-03T01:01:18.375Z,37.30
2022-12-03T01:03:44.821Z,37.41
2022-12-03T01:06:11.246Z,37.58
2022-12-03T01:08:37.683Z,37.51
2022-12-03T01:11:04.256Z,37.45
2022-12-03T01:13:30.733Z,37.40
2022-12-03T01:15:57.219Z,37.09
2022-12-03T01:18:23.694Z,37.27
2022-12-03T01:20:50.128Z,37.37
2022-12-03T01:23:16.549Z,37.09
2022-12-03T01:25:43.022Z,37.33
2022-12-03T01:28:09.536Z,36.79
2022-12-03T01:30:56.000Z,36.64
2022-12-03T01:33:22.482Z,36.99
2022-12-03T01:35:48.928Z,36.90
2022-12-03T01:38:15.396Z,36.84
2022-12-03T01:40:41.926Z,36.79
2022-12-03T01:43:08.426Z,36.77
2022-12-03T01:45:34.819Z,36.78
2022-12-03T01:48:01.467Z,36.65
2022-12-03T01:50:31.151Z,36.71
2022-12-03T01:53:00.218Z,36.43
2022-12-03T01:55:26.749Z,36.22
2022-12-03T01:57:56.084Z,36.06
2022-12-03T02:00:23.814Z,36.14
2022-12-03T02:02:55.036Z,36.25
2022-12-03T02:05:23.346Z,36.45
2022-12-03T02:07:49.861Z,36.53
2022-12-03T02:10:17.509Z,36.31
2022-12-03T02:12:46.668Z,36.44
2022-12-03T02:15:13.437Z,36.65
2022-12-03T02:17:40.389Z,36.77
2022-12-03T02:20:08.599Z,36.35
2022-12-03T02:22:47.138Z,36.23
2022-12-03T02:25:16.754Z,36.47
2022-12-03T02:27:43.445Z,36.40
2022-12-03T02:30:10.909Z,36.31
2022-12-03T02:32:37.478Z,36.50
2022-12-03T02:35:03.953Z,36.12
2022-12-03T02:37:32.363Z,36.14
2022-12-03T02:40:00.214Z,36.37
2022-12-03T02:42:35.753Z,36.45
2022-12-03T02:45:05.910Z,36.36
2022-12-03T02:47:34.282Z,36.21
2022-12-03T02:50:01.173Z,35.81
2022-12-03T02:52:27.732Z,36.11
2022-12-03T02:54:54.452Z,36.08
2022-12-03T02:57:21.385Z,36.50
2022-12-03T02:59:48.056Z,36.47
2022-12-03T03:02:14.871Z,36.68
2022-12-03T03:04:42.429Z,36.50
2022-12-03T03:07:09.430Z,36.35
2022-12-03T03:09:35.935Z,36.35
2022-12-03T03:12:02.335Z,35.99
2022-12-03T03:14:28.749Z,36.12
2022-12-03T03:16:58.130Z,35.92
2022-12-03T03:19:28.858Z,36.08
2022-12-03T03:21:55.412Z,36.24
2022-12-03T03:24:22.787Z,36.22
2022-12-03T03:26:49.653Z,36.20
2022-12-03T03:29:16.342Z,36.09
2022-12-03T03:31:44.084Z,36.08
2022-12-03T03:34:10.591Z,35.67
2022-12-03T03:36:37.102Z,35.83
2022-12-03T03:39:05.262Z,35.64
2022-12-03T03:41:32.694Z,35.70
2022-12-03T03:43:59.559Z,35.58
2022-12-03T03:46:27.464Z,35.68
2022-12-03T03:48:54.130Z,35.72
2022-12-03T03:51:20.937Z,35.76
2022-12-03T03:53:48.910Z,35.90
2022-12-03T03:56:19.407Z,35.78
2022-12-03T03:58:45.891Z,35.77
2022-12-03T04:01:13.241Z,35.67
2022-12-03T04:03:40.236Z,35.70
2022-12-03T04:06:06.998Z,35.62
2022-12-03T04:08:33.438Z,35.41
2022-12-03T04:11:18.619Z,35.26
2022-12-03T04:13:45.090Z,34.97
2022-12-03T04:16:11.605Z,34.80
2022-12-03T04:18:44.002Z,34.58
2022-12-03T04:21:39.194Z,34.63
2022-12-03T04:24:06.227Z,35.18
2022-12-03T04:26:51.346Z,35.03
2022-12-03T04:29:18.114Z,34.90
2022-12-03T04:32:03.420Z,34.99
2022-12-03T04:34:48.342Z,34.50
2022-12-03T04:37:14.813Z,34.62
2022-12-03T04:39:41.405Z,34.85
2022-12-03T04:42:08.037Z,34.77
2022-12-03T04:44:37.421Z,34.96
2022-12-03T04:47:09.151Z,34.54
2022-12-03T04:49:36.755Z,34.44
2022-12-03T04:52:03.460Z,34.51
2022-12-03T04:54:30.128Z,34.51
2022-12-03T04:56:56.689Z,34.51
2022-12-03T04:59:23.188Z,34.90
2022-12-03T05:01:49.741Z,34.71
2022-12-03T05:04:16.293Z,34.68
2022-12-03T05:06:42.801Z,34.48
2022-12-03T05:09:09.764Z,34.53
2022-12-03T05:11:36.273Z,34.63
2022-12-03T05:14:02.913Z,34.52
2022-12-03T05:16:29.622Z,34.68
2022-12-03T05:18:56.125Z,34.63
2022-12-03T05:21:22.666Z,34.81
2022-12-03T05:23:49.515Z,34.60
2022-12-03T05:26:15.983Z,34.68
2022-12-03T05:28:42.395Z,34.77
2022-12-03T05:31:08.973Z,34.70
2022-12-03T05:33:39.468Z,34.89
2022-12-03T05:36:09.158Z,34.89
2022-12-03T05:38:35.809Z,34.72
2022-12-03T05:41:02.195Z,34.59
2022-12-03T05:43:28.646Z,34.46
2022-12-03T05:45:55.186Z,34.50
2022-12-03T05:48:21.691Z,34.53
2022-12-03T05:50:48.194Z,34.41
2022-12-03T05:53:15.471Z,34.67
2022-12-03T05:55:42.123Z,34.43
2022-12-03T05:58:08.666Z,34.27
2022-12-03T06:00:42.445Z,34.39
2022-12-03T06:03:09.712Z,34.33
2022-12-03T06:05:36.246Z,34.19
2022-12-03T06:08:02.744Z,34.36
2022-12-03T06:10:29.526Z,34.34
2022-12-03T06:12:56.201Z,34.14
2022-12-03T06:15:22.774Z,33.86
2022-12-03T06:17:49.190Z,33.67
2022-12-03T06:20:17.074Z,33.92
2022-12-03T06:22:43.637Z,33.80
2022-12-03T06:25:10.826Z,33.73
2022-12-03T06:27:37.648Z,34.10
2022-12-03T06:30:04.542Z,33.89
2022-12-03T06:32:30.922Z,34.01
2022-12-03T06:34:57.383Z,33.95
2022-12-03T06:37:23.867Z,34.12
2022-12-03T06:39:50.329Z,33.98
2022-12-03T06:42:16.791Z,34.15
2022-12-03T06:44:43.199Z,34.28
2022-12-03T06:47:09.621Z,34.36
2022-12-03T06:49:36.062Z,34.52
2022-12-03T06:52:02.543Z,34.59
2022-12-03T06:54:29.014Z,34.60
2022-12-03T06:56:55.451Z,34.45
2022-12-03T06:59:21.934Z,34.52
2022-12-03T07:01:48.418Z,34.57
2022-12-03T07:04:14.842Z,34.52
2022-12-03T07:06:41.314Z,34.30
2022-12-03T07:09:07.721Z,34.52
2022-12-03T07:11:40.429Z,34.45
2022-12-03T07:14:07.891Z,34.01
2022-12-03T07:16:50.154Z,34.12
2022-12-03T07:19:16.969Z,34.18
2022-12-03T07:21:43.460Z,34.16
2022-12-03T07:24:09.986Z,34.24
2022-12-03T07:26:36.458Z,34.06
2022-12-03T07:29:03.161Z,34.23
2022-12-03T07:31:29.637Z,34.44
2022-12-03T07:33:56.153Z,34.59
2022-12-03T07:36:22.668Z,34.57
2022-12-03T07:38:49.131Z,34.29
2022-12-03T07:41:15.576Z,34.11
2022-12-03T07:43:42.019Z,34.10
2022-12-03T07:46:08.549Z,33.81
2022-12-03T07:48:35.029Z,34.03
2022-12-03T07:51:01.540Z,34.07
2022-12-03T07:53:28.049Z,34.14
2022-12-03T07:55:54.546Z,33.91
2022-12-03T07:58:20.967Z,34.22
2022-12-03T08:00:47.451Z,34.25
2022-12-03T08:03:13.970Z,34.13
2022-12-03T08:05:40.413Z,34.08
2022-12-03T08:08:06.951Z,34.11
2022-12-03T08:10:33.445Z,34.22
2022-12-03T08:13:00.182Z,34.22
2022-12-03T08:15:32.219Z,34.18
2022-12-03T08:18:07.358Z,34.21
2022-12-03T08:20:35.008Z,34.47
2022-12-03T08:23:03.951Z,34.55
2022-12-03T08:25:31.774Z,34.75
2022-12-03T08:28:11.727Z,34.70
2022-12-03T08:30:38.154Z,34.59
2022-12-03T08:33:40.297Z,34.24
2022-12-03T08:36:14.607Z,34.29
2022-12-03T08:38:41.059Z,34.47
2022-12-03T08:41:15.030Z,34.75
2022-12-03T08:43:44.315Z,34.56
2022-12-03T08:46:18.897Z,34.66
2022-12-03T08:48:49.177Z,34.42
2022-12-03T08:51:20.786Z,34.43
2022-12-03T08:53:53.322Z,34.38
2022-12-03T08:56:24.518Z,34.63
2022-12-03T08:58:55.697Z,34.67
2022-12-03T09:01:31.447Z,34.56
2022-12-03T09:04:02.335Z,34.68
2022-12-03T09:06:28.887Z,34.85
2022-12-03T09:08:55.368Z,34.95
2022-12-03T09:11:21.791Z,34.92
2022-12-03T09:13:48.308Z,34.91
2022-12-03T09:16:14.902Z,34.88
2022-12-03T09:18:41.415Z,34.84
2022-12-03T09:21:07.815Z,34.98
2022-12-03T09:23:34.235Z,34.77
2022-12-03T09:26:00.773Z,34.90
2022-12-03T09:28:27.246Z,35.06
2022-12-03T09:30:53.686Z,34.73
2022-12-03T09:33:20.122Z,34.96
2022-12-03T09:35:46.578Z,35.00
2022-12-03T09:38:13.131Z,34.96
2022-12-03T09:40:39.610Z,35.16
2022-12-03T09:43:06.209Z,35.14
2022-12-03T09:45:32.837Z,35.34
2022-12-03T09:48:01.961Z,35.13
2022-12-03T09:50:28.593Z,35.33
2022-12-03T09:52:56.914Z,35.55
2022-12-03T09:55:25.453Z,35.39
2022-12-03T09:57:55.518Z,35.43
2022-12-03T10:00:23.408Z,35.53
2022-12-03T10:02:51.535Z,35.58
2022-12-03T10:05:21.518Z,35.52
2022-12-03T10:07:51.826Z,35.53
2022-12-03T10:10:20.306Z,35.35
2022-12-03T10:12:47.147Z,35.18
2022-12-03T10:15:14.946Z,35.07
2022-12-03T10:17:41.539Z,35.52
2022-12-03T10:20:11.194Z,35.40
2022-12-03T10:22:37.600Z,35.21
2022-12-03T10:25:07.457Z,34.88
2022-12-03T10:27:34.000Z,35.00
2022-12-03T10:30:01.268Z,34.76
2022-12-03T10:32:40.278Z,34.62
2022-12-03T10:35:09.626Z,34.67
2022-12-03T10:37:36.165Z,34.67
2022-12-03T10:40:08.378Z,34.62
2022-12-03T10:42:39.529Z,34.41
2022-12-03T10:45:19.646Z,34.26
2022-12-03T10:48:06.705Z,34.36
2022-12-03T10:50:34.319Z,34.54
2022-12-03T10:53:02.310Z,34.42
2022-12-03T10:55:32.326Z,34.60
2022-12-03T10:57:58.837Z,34.92
2022-12-03T11:00:25.378Z,36.27
2022-12-03T11:02:56.701Z,38.38
2022-12-03T11:05:26.881Z,39.96
2022-12-03T11:07:53.640Z,40.02
2022-12-03T11:10:20.593Z,40.02
2022-12-03T11:13:05.926Z,39.53
2022-12-03T11:15:43.971Z,39.25
2022-12-03T11:18:10.425Z,39.20
2022-12-03T11:20:42.869Z,38.77
2022-12-03T11:23:10.235Z,38.24
2022-12-03T11:25:47.578Z,37.98
2022-12-03T11:28:13.993Z,37.86
2022-12-03T11:30:49.997Z,37.90
2022-12-03T11:33:21.639Z,37.64
2022-12-03T11:36:03.358Z,37.25
2022-12-03T11:38:40.856Z,37.14
2022-12-03T11:41:13.546Z,36.98
2022-12-03T11:43:52.252Z,36.67
2022-12-03T11:46:18.745Z,36.97
2022-12-03T11:48:45.733Z,36.82
2022-12-03T11:51:14.395Z,36.80
2022-12-03T11:53:41.152Z,36.57
2022-12-03T11:56:10.533Z,37.90
2022-12-03T11:58:39.552Z,39.67
2022-12-03T12:01:07.405Z,40.74
2022-12-03T12:03:34.119Z,41.31
2022-12-03T12:06:03.690Z,41.56
2022-12-03T12:08:30.389Z,41.96
2022-12-03T12:10:56.811Z,42.05
2022-12-03T12:13:32.282Z,42.28
2022-12-03T12:15:59.655Z,42.51
2022-12-03T12:18:41.148Z,42.18
2022-12-03T12:21:26.425Z,42.57
2022-12-03T12:23:52.847Z,42.19
2022-12-03T12:26:19.271Z,42.35
2022-12-03T12:28:45.847Z,42.60
2022-12-03T12:31:12.421Z,42.56
2022-12-03T12:33:38.917Z,42.86
2022-12-03T12:36:09.168Z,42.90
2022-12-03T12:38:35.591Z,42.98
2022-12-03T12:41:05.099Z,42.77
2022-12-03T12:43:33.771Z,42.57
2022-12-03T12:46:18.651Z,42.31
2022-12-03T12:48:48.093Z,42.49
2022-12-03T12:51:18.667Z,42.51
2022-12-03T12:53:45.368Z,42.31
2022-12-03T12:56:14.873Z,42.29
2022-12-03T12:58:41.905Z,41.91
2022-12-03T13:01:16.922Z,42.06
2022-12-03T13:03:43.442Z,42.16
2022-12-03T13:06:13.807Z,41.54
2022-12-03T13:08:42.534Z,41.73
2022-12-03T13:11:21.198Z,42.43
2022-12-03T13:13:47.647Z,42.15
2022-12-03T13:16:19.249Z,42.06
2022-12-03T13:18:45.765Z,42.03
2022-12-03T13:21:15.035Z,42.16
2022-12-03T13:23:41.533Z,42.12
2022-12-03T13:26:38.139Z,42.37
2022-12-03T13:29:15.894Z,41.90
2022-12-03T13:31:48.758Z,42.11
2022-12-03T13:34:19.815Z,41.89
2022-12-03T13:39:36.460Z,42.38
2022-12-03T13:42:33.910Z,42.52
2022-12-03T13:45:01.672Z,42.43
2022-12-03T13:47:28.307Z,42.44
2022-12-03T13:49:56.772Z,42.50
2022-12-03T13:52:24.266Z,42.71
2022-12-03T13:54:55.095Z,42.75
2022-12-03T13:57:21.825Z,42.75
2022-12-03T13:59:48.518Z,42.73
2022-12-03T14:02:15.082Z,42.56
2022-12-03T14:04:41.753Z,42.68
2022-12-03T14:07:08.230Z,42.54
2022-12-03T14:09:34.659Z,42.76
2022-12-03T14:12:19.658Z,42.64
2022-12-03T14:14:46.149Z,42.57
2022-12-03T14:17:12.711Z,42.42
2022-12-03T14:19:39.238Z,42.46
2022-12-03T14:22:07.987Z,42.45
2022-12-03T14:24:34.441Z,42.68
2022-12-03T14:27:00.896Z,42.43
2022-12-03T14:29:27.330Z,42.38
2022-12-03T14:31:53.920Z,42.53
2022-12-03T14:34:20.373Z,42.48
2022-12-03T14:36:46.786Z,42.56
2022-12-03T14:39:13.283Z,42.95
2022-12-03T14:41:58.404Z,42.76
2022-12-03T14:44:25.365Z,43.11
2022-12-03T14:46:56.798Z,43.04
2022-12-03T14:49:23.638Z,42.93
2022-12-03T14:51:50.081Z,42.91
2022-12-03T14:54:16.503Z,42.79
2022-12-03T14:56:42.870Z,42.76
2022-12-03T14:59:09.273Z,42.79
2022-12-03T15:01:35.861Z,42.47
2022-12-03T15:04:02.328Z,42.38
2022-12-03T15:06:28.749Z,42.35
2022-12-03T15:08:55.122Z,42.23
2022-12-03T15:11:21.534Z,42.65
2022-12-03T15:13:48.049Z,42.91
2022-12-03T15:16:14.517Z,42.51
2022-12-03T15:18:41.068Z,42.51
2022-12-03T15:21:07.490Z,42.34
2022-12-03T15:23:33.898Z,42.54
2022-12-03T15:26:00.361Z,42.32
2022-12-03T15:28:27.515Z,42.36
2022-12-03T15:30:54.048Z,42.56
2022-12-03T15:33:20.496Z,42.53
2022-12-03T15:35:46.966Z,42.55
2022-12-03T15:38:13.446Z,42.34
2022-12-03T15:40:39.981Z,42.48
2022-12-03T15:43:07.105Z,42.39
2022-12-03T15:45:33.705Z,42.38
2022-12-03T15:48:00.398Z,42.09
2022-12-03T15:50:27.170Z,42.24
2022-12-03T15:52:53.648Z,42.31
2022-12-03T15:55:20.272Z,42.42
2022-12-03T15:57:46.714Z,42.25
2022-12-03T16:00:13.882Z,42.24
2022-12-03T16:02:40.731Z,42.47
2022-12-03T16:05:08.974Z,42.26
2022-12-03T16:07:35.520Z,42.98
2022-12-03T16:10:02.089Z,43.35
2022-12-03T16:12:28.622Z,42.80
2022-12-03T16:14:55.065Z,42.38
2022-12-03T16:17:21.476Z,42.10
2022-12-03T16:19:48.925Z,41.71
2022-12-03T16:22:15.815Z,41.26
2022-12-03T16:24:42.257Z,41.28
2022-12-03T16:27:08.906Z,41.43
2022-12-03T16:29:35.326Z,41.47
2022-12-03T16:32:01.911Z,41.40
2022-12-03T16:34:28.396Z,41.20
2022-12-03T16:36:55.520Z,41.27
2022-12-03T16:39:22.039Z,41.22
2022-12-03T16:41:48.482Z,41.46
2022-12-03T16:44:31.576Z,41.47
2022-12-03T16:46:58.868Z,41.35
2022-12-03T16:49:25.321Z,41.65
2022-12-03T16:51:51.848Z,41.63
2022-12-03T16:54:18.274Z,42.02
2022-12-03T16:56:44.695Z,41.74
2022-12-03T16:59:11.113Z,42.18
2022-12-03T17:01:37.583Z,42.63
2022-12-03T17:04:04.023Z,42.60
2022-12-03T17:06:30.500Z,42.82
2022-12-03T17:08:56.925Z,42.35
2022-12-03T17:11:23.382Z,42.33
2022-12-03T17:13:49.826Z,42.23
2022-12-03T17:16:16.357Z,42.29
2022-12-03T17:18:42.961Z,42.04
2022-12-03T17:21:09.475Z,42.26
2022-12-03T17:23:35.896Z,42.06
2022-12-03T17:26:02.310Z,41.71
2022-12-03T17:28:28.858Z,41.57
2022-12-03T17:30:55.282Z,41.90
2022-12-03T17:33:21.684Z,41.93
2022-12-03T17:35:48.566Z,41.81
2022-12-03T17:38:15.089Z,41.96
2022-12-03T17:40:41.552Z,41.95
2022-12-03T17:43:07.972Z,42.09
2022-12-03T17:45:34.921Z,42.14
2022-12-03T17:48:01.466Z,42.60
2022-12-03T17:50:27.950Z,41.82
2022-12-03T17:52:54.384Z,41.77
2022-12-03T17:55:30.973Z,41.49
2022-12-03T17:58:03.019Z,41.18
2022-12-03T18:00:29.489Z,41.22
2022-12-03T18:02:55.969Z,40.80
2022-12-03T18:05:23.109Z,40.39
2022-12-03T18:07:50.245Z,40.46
2022-12-03T18:10:17.245Z,40.22
2022-12-03T18:12:43.693Z,39.98
2022-12-03T18:15:10.690Z,39.54
2022-12-03T18:17:37.142Z,38.38
2022-12-03T18:20:04.260Z,37.85
2022-12-03T18:22:30.932Z,36.96
2022-12-03T18:24:57.589Z,37.20
2022-12-03T18:27:24.008Z,37.29
2022-12-03T18:29:50.846Z,37.28
2022-12-03T18:32:28.390Z,37.17
2022-12-03T18:34:55.283Z,36.91
2022-12-03T18:37:22.474Z,36.63
2022-12-03T18:39:49.019Z,36.83
2022-12-03T18:42:16.890Z,36.43
2022-12-03T18:44:49.283Z,36.43
2022-12-03T18:47:18.086Z,36.59
2022-12-03T18:49:44.826Z,36.15
2022-12-03T18:52:15.310Z,36.12
2022-12-03T18:54:42.168Z,36.01
2022-12-03T18:57:08.640Z,35.74
2022-12-03T18:59:35.308Z,35.87
2022-12-03T19:02:01.799Z,35.90
2022-12-03T19:04:28.331Z,36.07
2022-12-03T19:06:55.041Z,35.97
2022-12-03T19:09:21.566Z,35.82
2022-12-03T19:11:48.015Z,35.79
2022-12-03T19:14:14.440Z,35.71
2022-12-03T19:16:41.467Z,35.90
2022-12-03T19:19:08.646Z,35.64
2022-12-03T19:21:35.756Z,35.73
2022-12-03T19:24:23.908Z,35.61
2022-12-03T19:26:48.894Z,35.47
2022-12-03T19:29:15.422Z,35.37
2022-12-03T19:31:41.937Z,35.54
2022-12-03T19:34:08.457Z,35.51
2022-12-03T19:36:34.945Z,35.53
2022-12-03T19:39:01.756Z,35.44
2022-12-03T19:41:30.474Z,35.31
2022-12-03T19:43:57.642Z,35.26
2022-12-03T19:46:25.208Z,35.29
2022-12-03T19:48:51.937Z,35.32
2022-12-03T19:51:35.417Z,35.19
2022-12-03T19:54:03.137Z,35.21
2022-12-03T19:56:32.576Z,34.85
2022-12-03T19:58:59.256Z,34.82
2022-12-03T20:01:27.253Z,35.12
2022-12-03T20:03:55.046Z,34.96
2022-12-03T20:06:24.177Z,34.92
2022-12-03T20:08:51.770Z,34.99
2022-12-03T20:11:22.730Z,35.10
2022-12-03T20:13:51.765Z,34.90
2022-12-03T20:16:18.306Z,34.65
2022-12-03T20:18:47.537Z,35.02
2022-12-03T20:21:15.683Z,34.92
2022-12-03T20:23:42.177Z,34.82
2022-12-03T20:26:09.473Z,34.78
2022-12-03T20:28:36.006Z,34.77
2022-12-03T20:31:13.592Z,34.68
2022-12-03T20:33:41.199Z,34.69
2022-12-03T20:36:08.021Z,34.51
2022-12-03T20:38:34.552Z,34.63
2022-12-03T20:41:02.168Z,34.98
2022-12-03T20:43:28.602Z,34.86
2022-12-03T20:46:01.061Z,34.93
2022-12-03T20:48:29.124Z,34.91
2022-12-03T20:50:55.545Z,34.97
2022-12-03T20:53:25.648Z,35.10
2022-12-03T20:55:56.315Z,35.22
2022-12-03T20:58:22.758Z,35.33
2022-12-03T21:00:49.323Z,35.12
2022-12-03T21:03:15.877Z,35.22
2022-12-03T21:05:45.020Z,35.39
2022-12-03T21:08:11.904Z,35.08
2022-12-03T21:10:45.106Z,34.75
2022-12-03T21:13:12.549Z,35.14
2022-12-03T21:15:39.032Z,35.32
2022-12-03T21:18:05.637Z,35.30
2022-12-03T21:20:32.095Z,35.34
2022-12-03T21:22:58.479Z,35.10
2022-12-03T21:25:24.863Z,35.36
2022-12-03T21:27:51.339Z,35.20
2022-12-03T21:30:17.886Z,35.41
2022-12-03T21:32:44.302Z,35.41
2022-12-03T21:35:10.838Z,35.38
2022-12-03T21:37:37.270Z,35.41
2022-12-03T21:40:03.790Z,35.19
2022-12-03T21:42:36.466Z,35.23
2022-12-03T21:45:04.059Z,35.16
2022-12-03T21:47:36.549Z,35.34
2022-12-03T21:50:05.219Z,35.28
2022-12-03T21:52:32.084Z,35.35
2022-12-03T21:54:58.527Z,35.12
2022-12-03T21:57:24.988Z,35.08
2022-12-03T21:59:51.428Z,34.93
2022-12-03T22:02:17.948Z,34.86
2022-12-03T22:04:48.804Z,34.80
2022-12-03T22:07:15.200Z,34.95
2022-12-03T22:09:41.594Z,34.89
2022-12-03T22:12:08.007Z,34.83
2022-12-03T22:14:34.526Z,34.73
2022-12-03T22:17:00.999Z,34.78
2022-12-03T22:19:27.656Z,35.01
2022-12-03T22:21:54.081Z,34.93
2022-12-03T22:24:20.599Z,34.82
2022-12-03T22:26:47.577Z,34.73
2022-12-03T22:29:13.977Z,34.75
2022-12-03T22:31:40.515Z,34.81
2022-12-03T22:34:06.953Z,34.81
2022-12-03T22:36:33.349Z,34.79
2022-12-03T22:38:59.782Z,34.78
2022-12-03T22:41:26.219Z,34.71
2022-12-03T22:43:52.638Z,34.86
2022-12-03T22:46:19.209Z,34.70
2022-12-03T22:48:46.730Z,34.77
2022-12-03T22:51:14.384Z,34.60
2022-12-03T22:53:40.831Z,34.60
2022-12-03T22:56:07.342Z,34.78
2022-12-03T22:58:33.886Z,34.81
2022-12-03T23:01:03.239Z,34.90
2022-12-03T23:03:30.099Z,34.92
2022-12-03T23:05:56.681Z,34.66
2022-12-03T23:08:23.233Z,34.79
2022-12-03T23:10:50.810Z,34.74
2022-12-03T23:13:17.836Z,34.62
2022-12-03T23:15:53.381Z,34.46
2022-12-03T23:18:19.978Z,34.56
2022-12-03T23:20:47.924Z,34.62
2022-12-03T23:23:14.626Z,34.71
2022-12-03T23:25:41.357Z,34.65
2022-12-03T23:28:07.818Z,34.81
2022-12-03T23:30:38.512Z,35.10
2022-12-03T23:33:05.697Z,35.05
2022-12-03T23:35:32.759Z,34.97
2022-12-03T23:37:59.266Z,35.12
2022-12-03T23:40:25.739Z,35.17
2022-12-03T23:42:52.199Z,35.05
2022-12-03T23:45:18.661Z,34.77
2022-12-03T23:47:45.067Z,34.88
2022-12-03T23:50:11.770Z,34.71
2022-12-03T23:52:38.382Z,34.72
2022-12-03T23:55:05.485Z,34.93
2022-12-03T23:57:32.262Z,34.76
2022-12-03T23:59:58.643Z,34.77
